CPH weather

Copenhagen Kastrup Airport
Copenhagen, Capital Region, Denmark

Public forecast

Using degrees Celsius for public forecast. Weather courtesy of forecast.io.

Current aviation weather report (METAR) for Copenhagen Kastrup Airport

Retrieved 2019/10/23 00:20 UTC (39 minutes ago):

EKCH 230020Z AUTO 26010KT 9999 BKN029/// 11/07 Q1021 NOSIG

Aviation forecast (TAF) for Copenhagen Kastrup Airport

Retrieved 2019-10-23 00:30 UTC (29 minutes ago):

TAF EKCH 222304Z 2300/2324 25010KT 9999 BKN025 BECMG 2313/2315 19010KT BECMG 2318/2321 13010KT TEMPO 2318/2322 BKN008